Terminal Aerodrome Forecast
Issued by NWS Shreveport, LA

Home | Current Version | Previous Version | Text Only | Print | Product List | Glossary On
Versions: 1 2 3 4 5 6 7 8 9 10 11 12 13 14 15
000
FTUS44 KSHV 010500 RRA
TAFELD
TAF
KELD 010550Z 0106/0206 15006KT P6SM OVC040
     FM011000 18010KT P6SM VCSH OVC040
     FM011600 25010KT 5SM -TSRA BR OVC010CB
     FM012200 30012G18KT 5SM -RA BR OVC015
     FM020100 32012G19KT P6SM BKN030 BKN100=

USA.gov is the U.S. government's official web portal to all federal, state and local government web resources and services.